Time;durP1;ratioP1;P1;durP2;ratioP2;P2;SDS_P1;SDS_P2;PMS_P1;PMS_P2;Temp;Humidity;BMP_temperature;BMP_pressure;BME280_temperature;BME280_humidity;BME280_pressure;Samples;Min_cycle;Max_cycle;Signal;HPM_P1;HPM_P2
2022/11/03 00:01:31;;;;;;;18.80;4.63;;;;;;;11.67;72.55;101331.25;5051878;28;20025;-67
2022/11/03 00:03:59;;;;;;;15.68;4.93;;;;;;;11.65;72.54;101329.63;5053103;28;20029;-68
2022/11/03 00:06:24;;;;;;;16.02;4.95;;;;;;;11.65;72.57;101321.63;5041243;28;20509;-68
2022/11/03 00:08:50;;;;;;;15.35;4.30;;;;;;;11.65;72.68;101321.63;5043771;28;20061;-68
2022/11/03 00:11:17;;;;;;;13.48;4.60;;;;;;;11.68;72.44;101326.81;5033125;28;20393;-68
2022/11/03 00:13:43;;;;;;;16.25;4.85;;;;;;;11.66;72.23;101308.22;5040468;28;20037;-68
2022/11/03 00:16:11;;;;;;;16.92;4.95;;;;;;;11.67;72.28;101315.25;5040701;28;20040;-68
2022/11/03 00:18:38;;;;;;;20.95;4.63;;;;;;;11.68;72.15;101313.47;5033219;28;20483;-68
2022/11/03 00:21:07;;;;;;;14.70;4.38;;;;;;;11.67;72.52;101314.41;5043951;28;20036;-68
2022/11/03 00:23:34;;;;;;;14.02;4.10;;;;;;;11.66;72.50;101308.22;5045407;28;20104;-68
2022/11/03 00:26:19;;;;;;;17.17;4.18;;;;;;;11.71;71.96;101305.31;5034143;28;20045;-68
2022/11/03 00:28:46;;;;;;;11.52;3.95;;;;;;;11.72;72.01;101305.19;5035331;28;20025;-68
2022/11/03 00:31:18;;;;;;;18.77;4.40;;;;;;;11.69;72.28;101293.88;5041377;28;20385;-68
2022/11/03 00:33:44;;;;;;;17.85;4.13;;;;;;;11.70;72.16;101296.41;5032112;28;20391;-68
2022/11/03 00:36:15;;;;;;;14.55;4.32;;;;;;;11.71;72.20;101297.31;5031755;28;20114;-68
2022/11/03 00:38:42;;;;;;;13.10;4.40;;;;;;;11.71;72.14;101284.84;5047682;28;20029;-67
2022/11/03 00:41:07;;;;;;;18.08;4.85;;;;;;;11.72;71.80;101281.22;5035584;28;20468;-68
2022/11/03 00:43:34;;;;;;;17.15;4.85;;;;;;;11.73;71.90;101274.06;5042898;28;20029;-68
2022/11/03 00:46:00;;;;;;;17.20;4.65;;;;;;;11.78;71.69;101271.97;5040698;28;20033;-68
2022/11/03 00:48:31;;;;;;;12.85;4.38;;;;;;;11.77;72.03;101270.28;5031049;28;20025;-68
2022/11/03 00:51:14;;;;;;;16.20;4.63;;;;;;;11.77;71.65;101260.47;5017252;28;20025;-68
2022/11/03 00:53:53;;;;;;;16.48;5.05;;;;;;;11.79;72.04;101263.91;5030956;28;20026;-68
2022/11/03 00:56:22;;;;;;;13.50;4.32;;;;;;;11.78;71.94;101267.50;5030067;28;20021;-68
2022/11/03 00:58:49;;;;;;;16.85;3.75;;;;;;;11.80;71.67;101256.75;5041680;28;20072;-68
2022/11/03 01:01:20;;;;;;;15.30;4.03;;;;;;;11.80;71.61;101252.28;5044111;28;20515;-68
2022/11/03 01:06:50;;;;;;;14.45;3.90;;;;;;;11.85;71.80;101251.13;5031468;28;20136;-68
2022/11/03 01:09:24;;;;;;;15.30;4.25;;;;;;;11.88;71.51;101249.16;5043028;28;20056;-68
2022/11/03 01:12:02;;;;;;;16.33;4.35;;;;;;;11.90;71.80;101244.59;5034743;28;20034;-68
2022/11/03 01:14:32;;;;;;;14.68;4.28;;;;;;;11.90;71.49;101241.94;5040379;28;20029;-68
2022/11/03 01:16:57;;;;;;;;;;;;;;;11.97;71.41;101251.28;5051008;28;20408;-68
2022/11/03 01:19:24;;;;;;;15.48;4.45;;;;;;;11.89;71.29;101224.25;5048792;28;19920;-68
2022/11/03 01:21:49;;;;;;;10.85;4.40;;;;;;;11.96;71.15;101238.88;5031690;28;20500;-68
2022/11/03 01:24:15;;;;;;;18.85;4.80;;;;;;;11.97;71.40;101229.06;5037957;28;20142;-68
2022/11/03 01:26:40;;;;;;;15.45;4.78;;;;;;;11.99;71.33;101229.84;5030272;28;20103;-68
2022/11/03 01:29:06;;;;;;;17.88;4.93;;;;;;;11.98;71.33;101226.31;5032976;28;20108;-68
2022/11/03 01:31:31;;;;;;;15.07;4.47;;;;;;;12.00;71.15;101221.75;5031731;28;20501;-68
2022/11/03 01:33:57;;;;;;;17.13;4.22;;;;;;;11.92;71.52;101197.41;5033400;28;20040;-68
2022/11/03 01:36:26;;;;;;;15.15;4.18;;;;;;;11.97;71.57;101213.97;5033962;28;20040;-68
2022/11/03 01:38:55;;;;;;;11.85;4.07;;;;;;;11.98;71.32;101213.00;5040119;28;20037;-68
2022/11/03 01:41:27;;;;;;;18.33;4.90;;;;;;;11.98;71.52;101207.66;5025545;28;20112;-68
2022/11/03 01:44:09;;;;;;;18.35;4.40;;;;;;;12.04;71.21;101195.75;5043294;28;20033;-67
2022/11/03 01:46:46;;;;;;;10.02;4.18;;;;;;;12.00;71.41;101186.22;5033841;28;20537;-68
2022/11/03 01:50:02;;;;;;;12.63;4.05;;;;;;;12.01;71.41;101182.63;5030892;28;20483;-68
2022/11/03 01:52:40;;;;;;;13.98;4.53;;;;;;;11.98;71.80;101180.16;5045703;28;20084;-68
2022/11/03 01:55:17;;;;;;;17.40;4.18;;;;;;;11.96;72.16;101185.56;5010498;28;20044;-68
2022/11/03 01:57:54;;;;;;;14.30;4.97;;;;;;;11.95;72.36;101183.03;5041680;28;20083;-68
2022/11/03 02:00:22;;;;;;;14.30;4.43;;;;;;;12.00;72.10;101176.44;5043689;28;20030;-68
2022/11/03 02:02:49;;;;;;;10.50;4.53;;;;;;;11.99;72.09;101187.19;5051012;28;20071;-68
2022/11/03 02:05:21;;;;;;;11.77;4.35;;;;;;;11.98;72.42;101182.81;5042145;28;20472;-68
2022/11/03 02:08:00;;;;;;;20.27;4.63;;;;;;;12.02;72.02;101176.31;5041673;28;20032;-68
2022/11/03 02:10:26;;;;;;;16.15;4.55;;;;;;;12.02;72.42;101171.00;5052785;28;20450;-68
2022/11/03 02:12:52;;;;;;;15.75;4.32;;;;;;;12.01;72.09;101169.28;5049665;28;20033;-68
2022/11/03 02:15:21;;;;;;;15.77;4.30;;;;;;;12.03;72.04;101162.06;5035864;28;20061;-68
2022/11/03 02:17:49;;;;;;;12.93;4.05;;;;;;;12.00;72.24;101160.44;5041141;28;20025;-68
2022/11/03 02:20:22;;;;;;;11.48;3.95;;;;;;;12.00;72.38;101156.91;5046051;28;20052;-68
2022/11/03 02:22:59;;;;;;;16.15;4.25;;;;;;;11.97;72.48;101155.31;5043898;28;20029;-68
2022/11/03 02:25:44;;;;;;;15.63;4.18;;;;;;;11.98;72.33;101145.50;5045301;28;20044;-67
2022/11/03 02:28:15;;;;;;;16.13;4.05;;;;;;;11.87;72.46;101143.50;5046382;28;20070;-68
2022/11/03 02:30:49;;;;;;;18.55;4.43;;;;;;;11.91;72.31;101145.03;5040915;28;20017;-68
2022/11/03 02:33:24;;;;;;;14.95;4.28;;;;;;;11.90;72.47;101137.97;5035231;28;20543;-68
2022/11/03 02:36:04;;;;;;;14.18;3.90;;;;;;;11.88;72.79;101131.03;5048159;28;20032;-68
2022/11/03 02:38:35;;;;;;;12.65;4.05;;;;;;;11.85;72.78;101118.75;5034684;28;20392;-68
2022/11/03 02:41:04;;;;;;;15.15;3.97;;;;;;;11.82;73.27;101134.91;5034930;28;20030;-68
2022/11/03 02:43:30;;;;;;;14.77;3.92;;;;;;;11.86;72.99;101119.63;5039076;28;20063;-67
2022/11/03 02:45:56;;;;;;;12.55;3.97;;;;;;;11.85;73.38;101115.22;5041999;28;20048;-68
2022/11/03 02:48:21;;;;;;;10.77;3.90;;;;;;;11.83;73.38;101100.19;5050577;28;20033;-68
2022/11/03 02:50:48;;;;;;;12.50;4.05;;;;;;;11.83;73.60;101102.00;5045132;28;20333;-68
2022/11/03 02:53:14;;;;;;;14.25;4.40;;;;;;;11.82;73.69;101102.94;5052566;28;20029;-68
2022/11/03 02:55:57;;;;;;;12.98;4.30;;;;;;;11.79;73.76;101095.13;5052563;28;20017;-68
2022/11/03 02:58:25;;;;;;;15.23;4.65;;;;;;;11.81;73.78;101091.44;5051846;28;20074;-68
2022/11/03 03:00:58;;;;;;;14.18;4.20;;;;;;;11.81;74.01;101090.56;5039588;28;20516;-68
2022/11/03 03:03:34;;;;;;;13.20;4.05;;;;;;;11.78;73.66;101075.63;5046041;28;20030;-67
2022/11/03 03:06:21;;;;;;;14.43;4.30;;;;;;;11.81;73.81;101082.56;5049751;28;20029;-68
2022/11/03 03:08:52;;;;;;;13.82;4.25;;;;;;;11.86;73.87;101066.34;5050319;28;20097;-68
2022/11/03 03:11:35;;;;;;;15.07;3.92;;;;;;;11.82;73.85;101068.28;5041138;28;20062;-68
2022/11/03 03:14:20;;;;;;;19.27;4.53;;;;;;;11.79;74.32;101069.38;5052691;28;20375;-68
2022/11/03 03:16:57;;;;;;;16.40;4.50;;;;;;;11.82;74.17;101069.16;5038731;28;20133;-68
2022/11/03 03:19:50;;;;;;;13.05;3.90;;;;;;;11.80;74.33;101065.75;5050274;28;20039;-68
2022/11/03 03:22:32;;;;;;;10.65;4.30;;;;;;;11.79;74.49;101058.72;5037840;28;20033;-68
2022/11/03 03:25:06;;;;;;;12.80;4.68;;;;;;;11.79;74.50;101048.06;5052454;28;20068;-68
2022/11/03 03:27:33;;;;;;;11.82;4.10;;;;;;;11.76;74.54;101050.88;5054391;28;20029;-68
2022/11/03 03:30:05;;;;;;;15.32;4.47;;;;;;;11.76;74.74;101061.53;5050016;28;20044;-68
2022/11/03 03:32:36;;;;;;;12.35;3.55;;;;;;;11.76;74.67;101047.38;5043075;28;20029;-68
2022/11/03 03:35:06;;;;;;;13.68;4.07;;;;;;;11.75;75.02;101054.50;5040722;28;20037;-68
2022/11/03 03:37:36;;;;;;;13.13;3.50;;;;;;;11.73;75.11;101045.75;5033743;28;20033;-68
2022/11/03 03:40:07;;;;;;;11.27;3.97;;;;;;;11.81;74.88;101042.59;5048408;28;20041;-68
2022/11/03 03:42:36;;;;;;;16.52;3.97;;;;;;;11.76;75.15;101044.72;5049746;28;20029;-68
2022/11/03 03:45:04;;;;;;;14.20;4.53;;;;;;;11.78;74.85;101038.31;5049925;28;20033;-68
2022/11/03 03:47:33;;;;;;;17.75;4.85;;;;;;;11.76;75.27;101037.56;5046946;28;20055;-68
2022/11/03 03:50:01;;;;;;;16.30;3.78;;;;;;;11.77;75.42;101022.44;5032187;28;20049;-68
2022/11/03 03:52:28;;;;;;;11.52;3.70;;;;;;;11.76;75.46;101026.06;5051078;28;20111;-68
2022/11/03 03:54:56;;;;;;;17.60;5.30;;;;;;;11.76;75.55;101015.41;5044368;28;20032;-68
2022/11/03 03:57:26;;;;;;;12.57;3.40;;;;;;;11.75;75.87;101003.88;5032189;28;20033;-68
2022/11/03 03:59:51;;;;;;;14.10;4.53;;;;;;;11.75;75.77;101003.88;5049358;28;20319;-68
2022/11/03 04:02:17;;;;;;;12.82;4.35;;;;;;;11.76;75.93;101013.59;5051762;28;20083;-68
2022/11/03 04:04:42;;;;;;;12.60;3.95;;;;;;;11.77;75.73;101004.66;5049322;28;20028;-68
2022/11/03 04:09:52;;;;;;;20.75;4.55;;;;;;;11.78;76.01;101008.16;5040451;28;20071;-68
2022/11/03 04:23:16;;;;;;;10.63;4.18;;;;;;;11.80;76.81;100991.13;5041035;28;20519;-68
2022/11/03 04:25:47;;;;;;;12.68;4.05;;;;;;;11.90;76.67;100995.88;5038957;28;20047;-68
2022/11/03 04:28:15;;;;;;;15.27;4.25;;;;;;;11.84;76.97;100989.09;5051343;28;20033;-68
2022/11/03 04:30:40;;;;;;;16.08;4.32;;;;;;;11.80;77.27;100980.47;5039529;28;20472;-68
2022/11/03 04:33:27;;;;;;;12.02;3.40;;;;;;;11.82;76.89;100967.91;5050096;28;20025;-68
2022/11/03 04:35:56;;;;;;;14.70;4.82;;;;;;;11.83;77.46;100982.06;5038971;28;20112;-68
2022/11/03 04:38:23;;;;;;;17.73;4.90;;;;;;;11.86;77.50;100973.06;5051111;28;20502;-68
2022/11/03 04:40:54;;;;;;;13.82;3.78;;;;;;;11.79;77.38;100970.78;5047178;28;20295;-68
2022/11/03 04:43:22;;;;;;;12.82;4.00;;;;;;;11.91;77.51;100985.13;5041494;28;20393;-68
2022/11/03 04:45:48;;;;;;;14.63;4.45;;;;;;;11.87;77.47;100975.59;5040248;28;20029;-68
2022/11/03 04:48:25;;;;;;;18.67;4.65;;;;;;;11.90;77.62;100964.75;5030773;28;20127;-68
2022/11/03 04:50:56;;;;;;;12.13;4.13;;;;;;;11.92;77.73;100968.16;5046618;28;20028;-68
2022/11/03 04:53:22;;;;;;;13.63;4.40;;;;;;;11.90;78.38;100969.22;5051003;28;20442;-68
2022/11/03 04:55:51;;;;;;;10.45;4.25;;;;;;;11.90;78.05;100959.41;5047086;28;20071;-68
2022/11/03 04:58:21;;;;;;;12.98;4.63;;;;;;;11.91;78.06;100963.81;5032711;28;20029;-68
2022/11/03 05:00:52;;;;;;;12.90;4.35;;;;;;;11.88;78.40;100947.13;5048034;28;20091;-68
2022/11/03 05:03:32;;;;;;;13.50;4.15;;;;;;;11.88;78.44;100944.47;5049270;28;20033;-68
2022/11/03 05:06:11;;;;;;;15.40;4.63;;;;;;;11.91;78.50;100939.81;5040699;28;20380;-68
2022/11/03 05:08:38;;;;;;;17.10;4.28;;;;;;;11.91;78.55;100950.47;5031504;28;20487;-68
2022/11/03 05:11:14;;;;;;;10.10;4.25;;;;;;;11.90;78.88;100938.09;5031700;28;20021;-68
2022/11/03 05:13:39;;;;;;;16.60;4.85;;;;;;;11.93;78.68;100940.53;5038584;28;20044;-68
2022/11/03 05:16:05;;;;;;;11.50;3.95;;;;;;;11.88;79.05;100934.66;5034864;28;20033;-68
2022/11/03 05:18:35;;;;;;;11.80;4.38;;;;;;;11.91;79.18;100931.81;5034836;28;20040;-68
2022/11/03 05:21:09;;;;;;;12.75;4.47;;;;;;;11.90;79.28;100931.91;5037651;28;20381;-68
2022/11/03 05:23:39;;;;;;;13.90;4.57;;;;;;;11.90;79.78;100932.75;5047829;28;20468;-68
2022/11/03 05:26:10;;;;;;;17.45;5.03;;;;;;;11.90;79.86;100907.91;5048345;28;20025;-68
2022/11/03 05:28:46;;;;;;;11.40;4.10;;;;;;;11.94;80.01;100912.94;5047284;28;20133;-68
2022/11/03 05:31:24;;;;;;;9.95;3.83;;;;;;;11.93;80.01;100905.03;5031447;28;20044;-68
2022/11/03 05:34:00;;;;;;;15.00;4.17;;;;;;;11.97;80.13;100898.53;5033850;28;20033;-68
2022/11/03 05:36:29;;;;;;;14.38;4.43;;;;;;;11.99;80.35;100900.16;5039881;28;20029;-68
2022/11/03 05:39:20;;;;;;;17.38;4.57;;;;;;;11.99;80.17;100899.28;5050019;28;20021;-68
2022/11/03 05:41:47;;;;;;;10.35;4.07;;;;;;;11.98;80.54;100893.13;5041512;28;20041;-68
2022/11/03 05:44:31;;;;;;;16.20;4.45;;;;;;;12.00;80.27;100887.66;5030389;28;20034;-68
2022/11/03 05:46:57;;;;;;;16.08;4.00;;;;;;;11.97;80.87;100883.44;5044033;28;20060;-68
2022/11/03 05:49:23;;;;;;;10.90;4.55;;;;;;;11.94;81.06;100877.41;5032530;28;20023;-69
2022/11/03 05:51:48;;;;;;;11.75;4.20;;;;;;;11.93;81.04;100878.41;5049350;28;20078;-68
2022/11/03 05:54:33;;;;;;;13.10;4.28;;;;;;;11.96;81.17;100876.38;5029335;28;20033;-68
2022/11/03 05:57:00;;;;;;;14.45;4.63;;;;;;;11.95;81.00;100876.50;5038769;28;20033;-68
2022/11/03 05:59:28;;;;;;;16.02;4.35;;;;;;;11.98;80.97;100869.13;5050968;28;20116;-68
2022/11/03 06:01:57;;;;;;;16.33;4.13;;;;;;;11.98;81.12;100865.63;5049812;28;20086;-68
2022/11/03 06:04:36;;;;;;;19.42;4.78;;;;;;;11.98;81.17;100863.78;5031834;28;20041;-67
2022/11/03 06:07:08;;;;;;;12.85;4.25;;;;;;;11.95;81.03;100855.16;5029811;28;20021;-68
2022/11/03 06:09:34;;;;;;;14.73;4.82;;;;;;;11.97;81.20;100854.09;5031241;28;20029;-68
2022/11/03 06:12:01;;;;;;;14.30;4.00;;;;;;;11.98;81.08;100849.63;5050010;28;20369;-67
2022/11/03 06:14:30;;;;;;;10.73;3.95;;;;;;;11.97;81.11;100847.91;5046013;28;20357;-68
2022/11/03 06:17:06;;;;;;;14.10;4.85;;;;;;;11.99;81.50;100852.16;5033482;28;20025;-68
2022/11/03 06:19:38;;;;;;;11.63;4.50;;;;;;;11.98;81.21;100853.13;5047254;28;20024;-68
2022/11/03 06:22:44;;;;;;;14.10;4.93;;;;;;;12.00;81.07;100848.56;5030728;28;20061;-68
2022/11/03 06:25:15;;;;;;;12.75;4.60;;;;;;;11.97;81.11;100843.44;5046728;28;20064;-69
2022/11/03 06:27:41;;;;;;;13.10;4.10;;;;;;;11.99;81.50;100833.50;5048731;28;20025;-68
2022/11/03 06:30:25;;;;;;;12.80;4.03;;;;;;;11.99;81.32;100833.50;5036594;28;20038;-68
2022/11/03 06:32:51;;;;;;;14.35;4.63;;;;;;;12.00;81.44;100837.03;5032201;28;20040;-68
2022/11/03 06:35:17;;;;;;;12.50;4.35;;;;;;;12.01;81.10;100842.25;5046587;28;20117;-68
2022/11/03 06:37:47;;;;;;;15.55;5.15;;;;;;;12.02;81.26;100843.94;5040372;28;20083;-68
2022/11/03 06:40:12;;;;;;;11.93;4.53;;;;;;;12.02;80.81;100838.63;5048883;28;20544;-68
2022/11/03 06:42:41;;;;;;;15.50;4.85;;;;;;;12.01;81.20;100830.75;5040385;28;20371;-67
2022/11/03 06:45:30;;;;;;;10.63;3.97;;;;;;;12.02;81.25;100835.97;5047119;28;20468;-68
2022/11/03 06:47:58;;;;;;;9.85;3.80;;;;;;;12.00;81.25;100829.03;5050078;28;20115;-68
2022/11/03 06:50:29;;;;;;;13.60;4.30;;;;;;;12.00;81.15;100829.03;5043877;28;20026;-68
2022/11/03 06:52:56;;;;;;;12.43;3.70;;;;;;;12.00;81.00;100827.22;5042950;28;20104;-67
2022/11/03 06:55:25;;;;;;;13.82;4.88;;;;;;;11.99;81.10;100825.50;5051132;28;20461;-67
2022/11/03 06:57:54;;;;;;;9.50;4.03;;;;;;;12.02;80.91;100821.78;5032520;28;20029;-68
2022/11/03 07:00:27;;;;;;;12.77;3.85;;;;;;;12.01;81.11;100828.09;5036148;28;20029;-68
2022/11/03 07:02:59;;;;;;;12.45;4.68;;;;;;;12.01;81.04;100820.09;5032598;28;20087;-68
2022/11/03 07:05:30;;;;;;;13.05;4.07;;;;;;;12.00;80.94;100824.56;5034288;28;20376;-68
2022/11/03 07:08:17;;;;;;;14.55;4.22;;;;;;;12.00;81.01;100808.56;5034303;28;20034;-68
2022/11/03 07:10:45;;;;;;;14.13;4.03;;;;;;;12.01;81.08;100799.59;5044490;28;20502;-68
2022/11/03 07:13:23;;;;;;;12.55;4.65;;;;;;;12.01;80.50;100801.44;5052560;28;20037;-68
2022/11/03 07:15:49;;;;;;;14.30;4.70;;;;;;;12.05;80.75;100794.91;5038413;28;20025;-68
2022/11/03 07:18:17;;;;;;;11.82;3.92;;;;;;;12.05;80.39;100798.41;5033952;28;20117;-68
2022/11/03 07:20:43;;;;;;;14.77;4.47;;;;;;;12.10;79.96;100800.78;5034429;28;20080;-68
2022/11/03 07:23:14;;;;;;;16.23;4.03;;;;;;;12.09;80.11;100796.41;5051654;28;20397;-68
2022/11/03 07:25:40;;;;;;;10.98;4.00;;;;;;;12.11;80.00;100796.28;5038729;28;20021;-68
2022/11/03 07:28:09;;;;;;;11.82;3.88;;;;;;;12.13;79.73;100795.22;5038292;28;20203;-68
2022/11/03 07:30:35;;;;;;;16.65;4.15;;;;;;;12.11;79.35;100777.63;5046109;28;20017;-68
2022/11/03 07:33:18;;;;;;;7.82;3.70;;;;;;;12.16;79.10;100784.34;5053571;28;20025;-68
2022/11/03 07:35:44;;;;;;;11.35;3.85;;;;;;;12.19;79.03;100778.78;5034175;28;20034;-68
2022/11/03 07:38:13;;;;;;;12.10;3.67;;;;;;;12.22;78.94;100777.72;5034833;28;20436;-68
2022/11/03 07:40:39;;;;;;;14.43;3.88;;;;;;;12.22;78.91;100778.56;5032861;28;20026;-68
2022/11/03 07:43:11;;;;;;;11.80;3.78;;;;;;;12.24;78.82;100779.31;5039807;28;20040;-68
2022/11/03 07:45:40;;;;;;;15.25;4.05;;;;;;;12.27;78.58;100780.94;5053500;28;20365;-68
2022/11/03 07:48:33;;;;;;;13.25;4.35;;;;;;;12.27;78.60;100789.78;5050208;28;20537;-68
2022/11/03 07:51:11;;;;;;;14.25;4.47;;;;;;;12.28;78.79;100783.47;5050496;28;20036;-68
2022/11/03 07:53:41;;;;;;;14.50;3.92;;;;;;;12.31;78.46;100789.56;5052052;28;20025;-67
2022/11/03 07:56:26;;;;;;;13.40;4.07;;;;;;;12.34;78.36;100794.66;5051485;28;20502;-67
2022/11/03 07:59:07;;;;;;;15.73;3.88;;;;;;;12.28;78.25;100793.28;5033119;28;20030;-66
2022/11/03 08:01:40;;;;;;;11.75;4.13;;;;;;;12.35;77.90;100788.38;5033210;28;20025;-67
2022/11/03 08:04:11;;;;;;;17.55;4.15;;;;;;;12.35;77.81;100786.53;5034234;28;20029;-67
2022/11/03 08:06:39;;;;;;;12.70;4.18;;;;;;;12.37;77.95;100786.44;5039661;28;20171;-66
2022/11/03 08:09:05;;;;;;;9.13;4.13;;;;;;;12.40;77.62;100772.88;5047069;28;20025;-67
2022/11/03 08:11:31;;;;;;;10.88;3.78;;;;;;;12.39;77.61;100764.03;5049583;28;20036;-67
2022/11/03 08:13:56;;;;;;;15.52;4.28;;;;;;;12.43;77.32;100764.66;5051356;28;20473;-67
2022/11/03 08:16:24;;;;;;;9.23;4.20;;;;;;;12.45;77.29;100762.75;5050577;28;20077;-67
2022/11/03 08:18:50;;;;;;;14.48;4.60;;;;;;;12.43;77.28;100754.84;5023251;28;20087;-67
2022/11/03 08:21:16;;;;;;;17.30;4.72;;;;;;;12.47;77.11;100748.34;5046826;28;20128;-66
2022/11/03 08:23:41;;;;;;;10.82;3.80;;;;;;;12.48;76.87;100742.03;5048169;28;20048;-67
2022/11/03 08:26:07;;;;;;;13.00;4.38;;;;;;;12.48;76.87;100733.19;5037868;28;20029;-67
2022/11/03 08:28:35;;;;;;;11.38;3.67;;;;;;;12.51;76.88;100727.63;5051940;28;20499;-66
2022/11/03 08:31:03;;;;;;;8.27;3.95;;;;;;;12.53;76.71;100724.81;5049810;28;20016;-66
2022/11/03 08:33:33;;;;;;;10.95;3.65;;;;;;;12.55;76.39;100721.09;5032221;28;20487;-66
2022/11/03 08:36:03;;;;;;;11.32;4.05;;;;;;;12.52;76.17;100707.13;5050914;28;20028;-66
2022/11/03 08:38:32;;;;;;;10.88;3.75;;;;;;;12.58;76.41;100706.66;5038336;28;20111;-67
2022/11/03 08:40:58;;;;;;;12.32;4.35;;;;;;;12.55;76.32;100694.41;5048119;28;20025;-67
2022/11/03 08:43:25;;;;;;;9.02;4.00;;;;;;;12.63;76.22;100684.03;5046258;28;20028;-66
2022/11/03 08:45:52;;;;;;;10.60;3.60;;;;;;;12.67;76.17;100681.97;5050369;28;20029;-66
2022/11/03 08:48:26;;;;;;;9.43;3.50;;;;;;;12.68;76.09;100663.19;5050250;28;20036;-66
2022/11/03 08:50:53;;;;;;;13.73;3.50;;;;;;;12.70;75.87;100663.91;5051381;28;20414;-66
2022/11/03 08:53:19;;;;;;;10.98;3.97;;;;;;;12.79;76.08;100656.19;5040308;28;20052;-67
2022/11/03 08:55:44;;;;;;;15.35;3.90;;;;;;;12.86;75.20;100652.09;5031972;28;20029;-67
2022/11/03 08:58:12;;;;;;;10.43;3.70;;;;;;;12.93;74.36;100656.00;5022111;28;20052;-66
2022/11/03 09:00:38;;;;;;;9.82;3.72;;;;;;;12.95;73.78;100646.91;5035833;28;20026;-67
2022/11/03 09:03:04;;;;;;;9.13;3.53;;;;;;;12.98;73.98;100621.81;5041963;28;20024;-67
2022/11/03 09:05:29;;;;;;;13.20;4.50;;;;;;;13.07;73.39;100628.25;5035785;28;20037;-66
2022/11/03 09:07:54;;;;;;;12.75;3.92;;;;;;;13.10;72.98;100622.69;5020873;28;20124;-67
2022/11/03 09:10:22;;;;;;;11.95;3.78;;;;;;;13.16;73.58;100622.19;5046869;28;20477;-67
2022/11/03 09:12:48;;;;;;;13.52;3.95;;;;;;;13.21;72.35;100613.81;5030087;28;20479;-66
2022/11/03 09:15:13;;;;;;;10.65;3.25;;;;;;;13.25;72.37;100596.59;5045443;28;20032;-67
2022/11/03 09:17:39;;;;;;;13.98;4.25;;;;;;;13.29;72.31;100598.91;5051094;28;20365;-67
2022/11/03 09:20:05;;;;;;;13.18;3.65;;;;;;;13.33;71.61;100588.88;5047530;28;20124;-67
2022/11/03 09:22:31;;;;;;;11.70;3.60;;;;;;;13.36;71.58;100573.44;5047418;28;20049;-67
2022/11/03 09:24:57;;;;;;;8.98;3.72;;;;;;;13.37;71.16;100564.44;5050619;28;20438;-67
2022/11/03 09:27:22;;;;;;;11.10;3.50;;;;;;;13.38;71.43;100551.94;5046737;28;20030;-67
2022/11/03 09:29:48;;;;;;;8.90;3.42;;;;;;;13.39;71.07;100548.31;5034161;28;20044;-67
2022/11/03 09:32:16;;;;;;;10.05;3.45;;;;;;;13.39;71.17;100546.47;5050395;28;20017;-67
2022/11/03 09:34:42;;;;;;;8.13;3.40;;;;;;;13.42;71.34;100547.22;5049424;28;20036;-66
2022/11/03 09:37:07;;;;;;;15.50;3.22;;;;;;;13.44;70.83;100537.25;5043796;28;20045;-66
2022/11/03 09:39:33;;;;;;;9.50;3.65;;;;;;;13.46;70.87;100532.63;5035578;28;20042;-66
2022/11/03 09:42:02;;;;;;;10.20;3.28;;;;;;;13.42;71.03;100528.53;5028728;28;20021;-66
2022/11/03 09:44:27;;;;;;;11.80;3.40;;;;;;;13.43;70.62;100525.72;5038374;28;20476;-65
2022/11/03 09:46:53;;;;;;;7.38;3.38;;;;;;;13.46;70.11;100525.47;5050824;28;20116;-66
2022/11/03 09:49:20;;;;;;;7.50;3.10;;;;;;;13.45;70.26;100525.59;5045627;28;20033;-65
2022/11/03 09:51:48;;;;;;;7.15;3.42;;;;;;;13.42;70.74;100520.50;5050303;28;20031;-67
2022/11/03 09:54:15;;;;;;;13.82;3.08;;;;;;;13.42;70.30;100507.16;5050489;28;20480;-65
2022/11/03 09:56:42;;;;;;;10.70;3.20;;;;;;;13.40;70.35;100507.25;5050342;28;20072;-66
2022/11/03 09:59:18;;;;;;;7.90;3.25;;;;;;;13.43;70.12;100511.50;5047685;28;20040;-65
2022/11/03 10:01:48;;;;;;;10.70;3.53;;;;;;;13.42;70.24;100508.00;5050086;28;20033;-65
2022/11/03 10:04:19;;;;;;;8.07;3.72;;;;;;;13.41;70.32;100503.59;5044863;28;20022;-65
2022/11/03 10:06:44;;;;;;;8.88;3.33;;;;;;;13.39;70.46;100502.91;5050263;28;20036;-65
2022/11/03 10:09:16;;;;;;;12.35;3.65;;;;;;;13.42;70.24;100497.31;5050513;28;20447;-66
2022/11/03 10:11:43;;;;;;;9.52;3.58;;;;;;;13.39;70.54;100486.88;5050186;28;20063;-66
2022/11/03 10:14:12;;;;;;;8.85;3.55;;;;;;;13.42;70.11;100483.94;5036580;28;20033;-65
2022/11/03 10:16:39;;;;;;;9.80;3.47;;;;;;;13.43;70.00;100477.63;5043162;28;20024;-67
2022/11/03 10:19:08;;;;;;;9.55;3.95;;;;;;;13.37;70.66;100462.94;5045468;28;20048;-66
2022/11/03 10:21:36;;;;;;;10.40;4.00;;;;;;;13.37;70.43;100456.75;5046893;28;20522;-66
2022/11/03 10:24:04;;;;;;;9.50;3.33;;;;;;;13.43;69.87;100472.28;5053531;28;20035;-66
2022/11/03 10:26:48;;;;;;;9.02;3.20;;;;;;;13.42;70.35;100467.06;5051514;28;20037;-66
2022/11/03 10:29:25;;;;;;;10.30;3.83;;;;;;;13.46;69.88;100461.34;5045776;28;20051;-67
2022/11/03 10:31:53;;;;;;;7.95;3.35;;;;;;;13.46;70.29;100455.16;5038871;28;20056;-66
2022/11/03 10:34:36;;;;;;;9.15;4.05;;;;;;;13.51;69.83;100455.63;5034710;28;20037;-67
2022/11/03 10:37:26;;;;;;;10.63;3.90;;;;;;;13.55;69.92;100446.38;5048471;28;20025;-66
2022/11/03 10:39:53;;;;;;;10.60;3.45;;;;;;;13.62;69.16;100437.75;5043736;28;20029;-66
2022/11/03 10:42:29;;;;;;;10.25;4.05;;;;;;;13.69;69.60;100438.09;5036439;28;20447;-67
2022/11/03 10:45:09;;;;;;;10.82;4.10;;;;;;;13.77;68.88;100440.13;5047543;28;20390;-67
2022/11/03 10:47:34;;;;;;;10.40;3.40;;;;;;;13.80;68.03;100440.72;5053698;28;20025;-66
2022/11/03 10:50:25;;;;;;;11.35;3.30;;;;;;;13.89;68.07;100440.94;5048110;28;20503;-67
2022/11/03 10:52:53;;;;;;;11.57;4.20;;;;;;;13.88;68.00;100424.03;5045955;28;20117;-67
2022/11/03 10:55:21;;;;;;;8.50;3.83;;;;;;;13.93;67.64;100426.31;5039689;28;20550;-66
2022/11/03 10:57:46;;;;;;;8.48;3.25;;;;;;;13.97;67.48;100422.41;5024801;28;20028;-67
2022/11/03 11:00:15;;;;;;;6.72;3.28;;;;;;;14.02;67.16;100409.50;5040258;28;20025;-67
2022/11/03 11:02:55;;;;;;;12.45;3.42;;;;;;;14.16;67.22;100419.03;5050427;28;20021;-66
2022/11/03 11:05:22;;;;;;;8.57;3.60;;;;;;;14.21;66.37;100412.31;5051543;28;20108;-67
2022/11/03 11:07:52;;;;;;;8.73;3.10;;;;;;;14.20;65.91;100410.59;5049294;28;20028;-66
2022/11/03 11:10:22;;;;;;;8.15;3.50;;;;;;;14.21;66.40;100403.47;5046557;28;20021;-65
2022/11/03 11:13:20;;;;;;;11.18;3.38;;;;;;;14.22;67.14;100405.97;5045473;28;20028;-67
2022/11/03 11:15:55;;;;;;;9.93;3.03;;;;;;;14.25;66.03;100400.38;5047808;28;20076;-66
2022/11/03 11:18:29;;;;;;;6.32;3.25;;;;;;;14.30;65.91;100386.63;5051648;28;20037;-66
2022/11/03 11:20:59;;;;;;;5.88;3.00;;;;;;;14.31;65.80;100394.50;5049252;28;20040;-65
2022/11/03 11:23:30;;;;;;;6.57;3.03;;;;;;;14.36;66.00;100390.59;5052335;28;20029;-65
2022/11/03 11:26:06;;;;;;;7.07;3.78;;;;;;;14.39;65.18;100388.50;5049742;28;20033;-66
2022/11/03 11:28:31;;;;;;;7.03;3.03;;;;;;;14.34;65.08;100365.78;5053143;28;20025;-66
2022/11/03 11:30:58;;;;;;;6.65;3.20;;;;;;;14.41;65.69;100357.09;5050859;28;20037;-65
2022/11/03 11:33:30;;;;;;;8.60;3.13;;;;;;;14.51;64.38;100357.13;5048985;28;20435;-66
2022/11/03 11:35:55;;;;;;;7.13;3.15;;;;;;;14.57;64.12;100356.63;5053122;28;20024;-66
2022/11/03 11:38:51;;;;;;;9.38;3.60;;;;;;;14.62;64.28;100343.69;5052939;28;20029;-65
2022/11/03 11:41:16;;;;;;;8.90;3.42;;;;;;;14.63;64.20;100336.50;5052234;28;20426;-66
2022/11/03 11:43:41;;;;;;;9.35;3.20;;;;;;;14.59;64.09;100327.03;5050609;28;20033;-66
2022/11/03 11:46:22;;;;;;;9.73;3.00;;;;;;;14.59;64.81;100327.91;5048027;28;20079;-66
2022/11/03 11:49:03;;;;;;;7.90;2.92;;;;;;;14.59;64.74;100329.72;5043973;28;20121;-65
2022/11/03 11:51:36;;;;;;;8.07;3.20;;;;;;;14.55;64.58;100307.75;5043501;28;20032;-66
2022/11/03 11:54:07;;;;;;;7.68;3.30;;;;;;;14.57;64.66;100291.56;5045871;28;20037;-65